Time;durP1;ratioP1;P1;durP2;ratioP2;P2;SDS_P1;SDS_P2;PMS_P1;PMS_P2;Temp;Humidity;BMP_temperature;BMP_pressure;BME280_temperature;BME280_humidity;BME280_pressure;Samples;Min_cycle;Max_cycle;Signal;HPM_P1;HPM_P2
2021/09/02 00:00:08;;;;;;;9.15;5.15;;;15.50;99.90;;;;;;6103317;23;20670;-86
2021/09/02 00:02:35;;;;;;;10.55;6.32;;;15.40;99.90;;;;;;6103334;23;20171;-84
2021/09/02 00:05:03;;;;;;;16.73;8.00;;;15.50;99.90;;;;;;6103558;23;20186;-85
2021/09/02 00:07:30;;;;;;;12.27;7.68;;;15.50;99.90;;;;;;6103757;23;20207;-84
2021/09/02 00:09:57;;;;;;;16.38;8.57;;;15.40;99.90;;;;;;6105834;23;20174;-85
2021/09/02 00:12:25;;;;;;;17.25;8.43;;;15.40;99.90;;;;;;6104541;23;20238;-85
2021/09/02 00:14:54;;;;;;;13.25;9.63;;;15.30;99.90;;;;;;6103320;23;20185;-84
2021/09/02 00:17:21;;;;;;;20.02;10.02;;;15.40;99.90;;;;;;6104808;23;20232;-85
2021/09/02 00:19:52;;;;;;;19.30;11.20;;;15.30;99.90;;;;;;6112974;23;20186;-85
2021/09/02 00:22:20;;;;;;;18.42;12.93;;;15.20;99.90;;;;;;6110176;23;20166;-88
2021/09/02 00:24:47;;;;;;;19.40;13.50;;;15.10;99.90;;;;;;6108651;23;20544;-85
2021/09/02 00:27:15;;;;;;;19.98;11.38;;;15.10;99.90;;;;;;6106412;23;20204;-83
2021/09/02 00:29:45;;;;;;;18.17;12.80;;;15.00;99.90;;;;;;6106535;23;20178;-84
2021/09/02 00:32:38;;;;;;;26.08;14.40;;;15.10;99.90;;;;;;6107227;23;20201;-86
2021/09/02 00:35:09;;;;;;;25.10;13.68;;;15.00;99.90;;;;;;6104494;23;20206;-86
2021/09/02 00:37:47;;;;;;;19.85;13.50;;;14.90;99.90;;;;;;6106754;23;20202;-86
2021/09/02 00:40:51;;;;;;;21.75;14.20;;;14.80;99.90;;;;;;6106694;23;20182;-85
2021/09/02 00:43:43;;;;;;;19.88;14.32;;;14.80;99.90;;;;;;6059705;23;20187;-85
2021/09/02 00:46:12;;;;;;;16.65;13.20;;;14.80;99.90;;;;;;6105395;23;20230;-85
2021/09/02 00:48:43;;;;;;;19.90;14.35;;;14.70;99.90;;;;;;6105115;23;20181;-85
2021/09/02 00:51:10;;;;;;;21.83;13.75;;;14.70;99.90;;;;;;6103608;23;20530;-85
2021/09/02 00:53:38;;;;;;;21.00;14.68;;;14.70;99.90;;;;;;6103922;23;20185;-84
2021/09/02 00:56:10;;;;;;;25.80;12.70;;;14.70;99.90;;;;;;6104542;23;20198;-85
2021/09/02 00:58:38;;;;;;;21.48;14.48;;;14.60;99.90;;;;;;6102700;23;20654;-85
2021/09/02 01:01:05;;;;;;;17.65;12.90;;;14.60;99.90;;;;;;6103283;23;20201;-84
2021/09/02 01:03:32;;;;;;;24.90;15.32;;;14.60;99.90;;;;;;6102530;23;20198;-86
2021/09/02 01:06:01;;;;;;;22.85;14.43;;;14.50;99.90;;;;;;6102994;23;20198;-85
2021/09/02 01:08:29;;;;;;;20.35;14.27;;;14.50;99.90;;;;;;6101846;23;20212;-86
2021/09/02 01:10:56;;;;;;;20.33;14.38;;;14.40;99.90;;;;;;6101905;23;20174;-85
2021/09/02 01:13:24;;;;;;;16.60;13.02;;;14.30;99.90;;;;;;6101844;23;20198;-84
2021/09/02 01:15:51;;;;;;;25.13;15.00;;;14.30;99.90;;;;;;6101392;23;20178;-85
2021/09/02 01:18:19;;;;;;;23.65;13.18;;;14.30;99.90;;;;;;6102459;23;20646;-85
2021/09/02 01:20:46;;;;;;;19.35;13.18;;;14.30;99.90;;;;;;6103959;23;20205;-84
2021/09/02 01:23:19;;;;;;;19.52;12.48;;;14.20;99.90;;;;;;6109952;23;20963;-85
2021/09/02 01:25:46;;;;;;;24.00;13.15;;;14.20;99.90;;;;;;6105938;23;20228;-85
2021/09/02 01:28:15;;;;;;;20.15;12.82;;;14.20;99.90;;;;;;6105905;23;20210;-85
2021/09/02 01:30:43;;;;;;;17.75;12.20;;;14.30;99.90;;;;;;6124021;23;20772;-86
2021/09/02 01:33:11;;;;;;;25.10;12.07;;;14.20;99.90;;;;;;6121485;23;20225;-86
2021/09/02 01:35:39;;;;;;;16.50;11.10;;;14.20;99.90;;;;;;6122650;23;20185;-86
2021/09/02 01:38:08;;;;;;;19.42;11.07;;;14.20;99.90;;;;;;6122078;23;20188;-86
2021/09/02 01:40:38;;;;;;;14.63;11.93;;;14.30;99.90;;;;;;6124538;23;20206;-89
2021/09/02 01:43:07;;;;;;;20.17;12.35;;;14.20;99.90;;;;;;6125049;23;20234;-87
2021/09/02 01:45:35;;;;;;;21.63;13.43;;;14.20;99.90;;;;;;6124923;23;20162;-88
2021/09/02 01:48:03;;;;;;;19.45;13.38;;;14.20;99.90;;;;;;6125574;23;20182;-88
2021/09/02 01:50:33;;;;;;;19.20;13.13;;;14.20;99.90;;;;;;6125452;23;20154;-87
2021/09/02 01:53:04;;;;;;;21.58;11.77;;;14.20;99.90;;;;;;6125514;23;20170;-84
2021/09/02 01:55:31;;;;;;;19.80;12.45;;;14.20;99.90;;;;;;6121355;23;20186;-84
2021/09/02 01:58:07;;;;;;;24.40;12.57;;;14.10;99.90;;;;;;6110176;23;20276;-86
2021/09/02 02:00:41;;;;;;;16.08;13.20;;;14.10;99.90;;;;;;6110495;23;20185;-85
2021/09/02 02:03:11;;;;;;;19.35;14.18;;;13.90;99.90;;;;;;6110151;23;20186;-85
2021/09/02 02:05:40;;;;;;;23.15;14.77;;;14.00;99.90;;;;;;6109068;23;20552;-85
2021/09/02 02:08:32;;;;;;;18.58;12.18;;;14.00;99.90;;;;;;6107146;23;20206;-85
2021/09/02 02:10:59;;;;;;;19.88;13.10;;;13.90;99.90;;;;;;6107018;23;20192;-85
2021/09/02 02:13:28;;;;;;;24.20;11.70;;;13.90;99.90;;;;;;6107563;23;20194;-86
2021/09/02 02:15:55;;;;;;;18.27;13.43;;;13.80;99.90;;;;;;6106779;23;20308;-86
2021/09/02 02:18:22;;;;;;;20.48;11.85;;;13.80;99.90;;;;;;6106039;23;20198;-84
2021/09/02 02:20:49;;;;;;;19.63;11.38;;;13.80;99.90;;;;;;6106903;23;20201;-85
2021/09/02 02:23:16;;;;;;;18.30;12.07;;;13.80;99.90;;;;;;6106692;23;20163;-85
2021/09/02 02:25:43;;;;;;;21.15;12.80;;;13.80;99.90;;;;;;6106313;23;20181;-85
2021/09/02 02:28:10;;;;;;;17.75;12.38;;;13.80;99.90;;;;;;6122233;23;20236;-84
2021/09/02 02:30:39;;;;;;;21.15;11.05;;;13.80;99.90;;;;;;6122065;23;20189;-87
2021/09/02 02:33:06;;;;;;;29.25;14.63;;;13.80;99.90;;;;;;6121664;23;20186;-85
2021/09/02 02:35:33;;;;;;;20.45;10.38;;;13.70;99.90;;;;;;6122230;23;20218;-87
2021/09/02 02:38:00;;;;;;;15.70;11.00;;;13.70;99.90;;;;;;6122165;23;20229;-85
2021/09/02 02:40:40;;;;;;;20.55;12.60;;;13.70;99.90;;;;;;6122458;23;20179;-87
2021/09/02 02:43:30;;;;;;;22.98;12.35;;;13.70;99.90;;;;;;6120075;23;20183;-86
2021/09/02 02:46:02;;;;;;;16.83;10.65;;;13.70;99.90;;;;;;6108515;23;20162;-85
2021/09/02 02:48:31;;;;;;;15.93;11.98;;;13.60;99.90;;;;;;6107193;23;20198;-86
2021/09/02 02:51:01;;;;;;;15.95;10.80;;;13.60;99.90;;;;;;6107288;23;20214;-86
2021/09/02 02:53:28;;;;;;;18.33;10.68;;;13.60;99.90;;;;;;6107112;23;20201;-85
2021/09/02 02:55:55;;;;;;;20.77;10.52;;;13.60;99.90;;;;;;6108004;23;20540;-86
2021/09/02 02:58:22;;;;;;;18.65;12.98;;;13.60;99.90;;;;;;6107726;23;20205;-84
2021/09/02 03:00:49;;;;;;;21.63;12.55;;;13.60;99.90;;;;;;6107993;23;20183;-85
2021/09/02 03:03:18;;;;;;;15.32;10.63;;;13.60;99.90;;;;;;6106980;23;20177;-85
2021/09/02 03:05:45;;;;;;;15.43;10.93;;;13.60;99.90;;;;;;6108798;23;20181;-87
2021/09/02 03:08:12;;;;;;;19.05;11.45;;;13.60;99.90;;;;;;6108815;23;20261;-86
2021/09/02 03:10:39;;;;;;;19.38;11.35;;;13.50;99.90;;;;;;6115372;23;20177;-84
2021/09/02 03:13:06;;;;;;;30.75;13.55;;;13.50;99.90;;;;;;6113883;23;20204;-86
2021/09/02 03:15:34;;;;;;;19.88;12.50;;;13.50;99.90;;;;;;6115149;23;20178;-86
2021/09/02 03:18:01;;;;;;;18.60;11.48;;;13.50;99.90;;;;;;6116216;23;20225;-85
2021/09/02 03:20:29;;;;;;;17.20;11.18;;;13.40;99.90;;;;;;6116116;23;20181;-86
2021/09/02 03:22:57;;;;;;;21.05;11.40;;;13.40;99.90;;;;;;6117220;23;20174;-85
2021/09/02 03:25:24;;;;;;;13.18;11.57;;;13.40;99.90;;;;;;6116933;23;20181;-86
2021/09/02 03:27:51;;;;;;;20.15;11.27;;;13.40;99.90;;;;;;6117543;23;20277;-85
2021/09/02 03:30:20;;;;;;;18.13;11.90;;;13.40;99.90;;;;;;6115423;23;20188;-85
2021/09/02 03:33:09;;;;;;;21.25;11.90;;;13.40;99.90;;;;;;6105339;23;20198;-85
2021/09/02 03:35:37;;;;;;;18.50;10.93;;;13.40;99.90;;;;;;6109611;23;20505;-85
2021/09/02 03:38:05;;;;;;;19.48;11.57;;;13.40;99.90;;;;;;6100136;23;20215;-85
2021/09/02 03:40:33;;;;;;;20.02;11.95;;;13.40;99.90;;;;;;6102373;23;20188;-85
2021/09/02 03:43:00;;;;;;;16.75;11.80;;;13.40;99.90;;;;;;6110025;23;20167;-87
2021/09/02 03:45:28;;;;;;;15.35;11.07;;;13.40;99.90;;;;;;6105615;23;20178;-84
2021/09/02 03:47:55;;;;;;;15.65;12.25;;;13.30;99.90;;;;;;6105842;23;20201;-85
2021/09/02 03:50:22;;;;;;;16.15;10.95;;;13.30;99.90;;;;;;6104101;23;20178;-84
2021/09/02 03:52:50;;;;;;;22.17;11.52;;;13.30;99.90;;;;;;6102458;23;20201;-85
2021/09/02 03:55:17;;;;;;;12.98;10.55;;;13.30;99.90;;;;;;6102778;23;20518;-84
2021/09/02 03:57:45;;;;;;;17.45;11.07;;;13.30;99.90;;;;;;6103644;23;20204;-85
2021/09/02 04:00:13;;;;;;;17.70;11.93;;;13.30;99.90;;;;;;6103580;23;20181;-85
2021/09/02 04:05:32;;;;;;;17.20;11.65;;;13.30;99.90;;;;;;6117818;23;20225;-85
2021/09/02 04:08:05;;;;;;;21.47;12.10;;;13.30;99.90;;;;;;6067178;23;1284979;-88
2021/09/02 04:10:32;;;;;;;18.15;12.85;;;13.30;99.90;;;;;;6123259;23;20425;-88
2021/09/02 04:13:00;;;;;;;20.80;11.63;;;13.30;99.90;;;;;;6122643;23;20197;-88
2021/09/02 04:15:27;;;;;;;17.88;13.27;;;13.40;99.90;;;;;;6122723;23;20196;-89
2021/09/02 04:17:55;;;;;;;20.08;12.13;;;13.40;99.90;;;;;;6122990;23;20257;-88
2021/09/02 04:20:28;;;;;;;16.55;11.75;;;13.40;99.90;;;;;;6123269;23;20162;-88
2021/09/02 04:22:55;;;;;;;19.30;11.30;;;13.40;99.90;;;;;;6123416;23;20157;-87
2021/09/02 04:25:24;;;;;;;23.17;12.20;;;13.40;99.90;;;;;;6122910;23;20359;-86
2021/09/02 04:27:51;;;;;;;24.33;13.15;;;13.40;99.90;;;;;;6121923;23;20257;-88
2021/09/02 04:30:18;;;;;;;16.58;11.77;;;13.40;99.90;;;;;;6122589;23;20173;-87
2021/09/02 04:32:45;;;;;;;19.45;11.02;;;13.40;99.90;;;;;;6122998;23;20214;-87
2021/09/02 04:35:14;;;;;;;19.27;12.77;;;13.40;99.90;;;;;;6109520;23;20201;-86
2021/09/02 04:37:42;;;;;;;17.55;12.65;;;13.30;99.90;;;;;;6106849;23;20208;-85
2021/09/02 04:40:11;;;;;;;17.13;13.20;;;13.30;99.90;;;;;;6108977;23;20181;-85
2021/09/02 04:42:39;;;;;;;15.20;11.35;;;13.30;99.90;;;;;;6112338;23;20653;-85
2021/09/02 04:45:08;;;;;;;18.05;11.13;;;13.30;99.90;;;;;;6103706;23;20183;-84
2021/09/02 04:47:44;;;;;;;24.30;13.25;;;13.30;99.90;;;;;;6104847;23;20198;-84
2021/09/02 04:50:13;;;;;;;14.50;11.75;;;13.30;99.90;;;;;;6103506;23;20169;-84
2021/09/02 04:52:40;;;;;;;19.05;14.73;;;13.40;99.90;;;;;;6103087;23;20202;-85
2021/09/02 04:55:21;;;;;;;20.10;15.38;;;13.50;99.90;;;;;;6106835;23;20562;-83
2021/09/02 04:57:49;;;;;;;16.25;11.90;;;13.80;99.90;;;;;;6104848;23;20946;-85
2021/09/02 05:00:17;;;;;;;27.23;12.50;;;14.10;99.90;;;;;;6103383;23;20563;-85
2021/09/02 05:02:44;;;;;;;17.55;12.45;;;14.10;99.90;;;;;;6102898;23;20167;-87
2021/09/02 05:05:11;;;;;;;16.67;13.85;;;14.20;99.90;;;;;;6103762;23;20178;-85
2021/09/02 05:07:38;;;;;;;23.73;14.27;;;14.30;99.90;;;;;;6103009;23;20206;-84
2021/09/02 05:10:07;;;;;;;30.73;19.13;;;14.40;99.90;;;;;;6103297;23;20177;-85
2021/09/02 05:12:35;;;;;;;17.63;12.57;;;14.40;99.90;;;;;;6104740;23;20198;-85
2021/09/02 05:15:04;;;;;;;21.65;16.13;;;14.50;99.90;;;;;;6103554;23;20619;-87
2021/09/02 05:17:31;;;;;;;20.13;13.57;;;14.50;99.90;;;;;;6105433;23;20205;-85
2021/09/02 05:19:58;;;;;;;27.83;16.88;;;14.50;99.90;;;;;;6107581;23;20206;-85
2021/09/02 05:22:26;;;;;;;26.25;16.20;;;14.60;99.90;;;;;;6113843;23;20178;-87
2021/09/02 05:24:54;;;;;;;18.83;13.82;;;14.60;99.90;;;;;;6106882;23;20174;-85
2021/09/02 05:27:21;;;;;;;17.58;12.82;;;14.70;99.90;;;;;;6105454;23;20514;-84
2021/09/02 05:29:48;;;;;;;18.75;13.55;;;14.70;99.90;;;;;;6105814;23;20186;-84
2021/09/02 05:32:16;;;;;;;22.75;13.73;;;14.80;99.90;;;;;;6105794;23;20186;-87
2021/09/02 05:34:43;;;;;;;20.10;12.95;;;14.90;99.90;;;;;;6105509;23;20170;-83
2021/09/02 05:37:10;;;;;;;18.75;13.77;;;15.00;99.90;;;;;;6106056;23;20245;-82
2021/09/02 05:39:44;;;;;;;19.55;14.57;;;15.30;99.90;;;;;;6104834;23;20186;-86
2021/09/02 05:42:12;;;;;;;21.15;13.80;;;15.70;99.90;;;;;;6105244;23;20179;-86
2021/09/02 05:44:39;;;;;;;18.42;12.90;;;16.00;99.90;;;;;;6110089;23;20179;-86
2021/09/02 05:47:06;;;;;;;16.13;12.43;;;16.40;99.90;;;;;;6108265;23;20204;-86
2021/09/02 05:49:35;;;;;;;16.08;13.05;;;16.80;99.90;;;;;;6105350;23;20240;-86
2021/09/02 05:52:02;;;;;;;18.33;13.80;;;17.30;99.90;;;;;;6107534;23;20311;-85
2021/09/02 05:54:29;;;;;;;20.13;10.90;;;17.80;99.90;;;;;;6106754;23;20459;-85
2021/09/02 05:56:57;;;;;;;26.73;20.00;;;18.10;99.90;;;;;;6105795;23;20511;-84
2021/09/02 05:59:25;;;;;;;16.27;12.70;;;18.10;99.90;;;;;;6107613;23;20437;-84
2021/09/02 06:01:52;;;;;;;20.20;10.00;;;17.80;99.90;;;;;;6107556;23;20429;-83
2021/09/02 06:04:19;;;;;;;18.40;13.17;;;17.40;99.90;;;;;;6109719;23;21029;-84
2021/09/02 06:06:56;;;;;;;21.05;14.43;;;17.10;99.90;;;;;;6109864;23;20457;-84
2021/09/02 06:09:24;;;;;;;22.63;14.60;;;17.10;99.90;;;;;;6109478;23;20158;-87
2021/09/02 06:11:51;;;;;;;16.83;12.60;;;17.60;99.90;;;;;;6106472;23;20425;-87
2021/09/02 06:14:18;;;;;;;14.50;9.47;;;18.50;99.90;;;;;;6107574;23;20493;-84
2021/09/02 06:16:45;;;;;;;31.73;17.40;;;19.30;99.90;;;;;;6108297;23;20438;-85
2021/09/02 06:19:13;;;;;;;20.03;13.23;;;19.60;99.90;;;;;;6103864;23;20429;-85
2021/09/02 06:21:43;;;;;;;16.57;10.73;;;19.80;99.90;;;;;;6103877;23;20414;-86
2021/09/02 06:24:13;;;;;;;18.93;13.40;;;19.60;99.90;;;;;;6103667;23;20476;-86
2021/09/02 06:26:41;;;;;;;17.00;10.60;;;19.20;99.90;;;;;;6102782;23;20803;-86
2021/09/02 06:29:08;;;;;;;15.50;11.23;;;19.00;99.90;;;;;;6101902;23;20481;-87
2021/09/02 06:31:35;;;;;;;18.50;12.83;;;18.80;99.90;;;;;;6110349;23;20538;-88
2021/09/02 06:34:04;;;;;;;23.60;14.23;;;18.60;99.90;;;;;;6123324;23;20461;-88
2021/09/02 06:36:31;;;;;;;16.40;12.00;;;18.60;99.90;;;;;;6123551;23;20470;-89
2021/09/02 06:39:03;;;;;;;25.57;17.20;;;18.70;99.90;;;;;;6123997;23;20409;-89
2021/09/02 06:41:32;;;;;;;42.83;22.10;;;19.30;99.90;;;;;;6110009;23;20413;-86
2021/09/02 06:43:59;;;;;;;12.80;10.27;;;19.50;99.90;;;;;;6115437;23;20431;-87
2021/09/02 06:46:26;;;;;;;11.97;9.57;;;19.50;99.90;;;;;;6110419;23;20406;-87
2021/09/02 06:48:54;;;;;;;18.83;15.57;;;19.60;99.90;;;;;;6102141;23;20457;-87
2021/09/02 06:51:21;;;;;;;19.00;14.57;;;19.70;99.90;;;;;;6102410;23;20425;-87
2021/09/02 06:53:49;;;;;;;26.63;17.77;;;19.70;99.90;;;;;;6101099;23;20545;-86
2021/09/02 06:56:16;;;;;;;25.23;14.37;;;19.80;99.90;;;;;;6111309;23;20906;-86
2021/09/02 06:58:45;;;;;;;27.67;20.53;;;20.00;99.90;;;;;;6111758;23;20575;-87
2021/09/02 07:01:14;;;;;;;23.13;13.93;;;20.50;99.90;;;;;;6106825;23;20446;-87
2021/09/02 07:03:41;;;;;;;22.63;14.83;;;20.70;99.90;;;;;;6104062;23;20425;-87
2021/09/02 07:06:09;;;;;;;16.67;9.77;;;20.70;99.90;;;;;;6109201;23;20422;-87
2021/09/02 07:08:37;;;;;;;13.80;11.23;;;20.50;99.90;;;;;;6104725;23;20430;-86
2021/09/02 07:11:04;;;;;;;15.53;9.23;;;20.40;99.90;;;;;;6102512;23;20480;-86
2021/09/02 07:13:32;;;;;;;17.40;9.37;;;20.20;99.90;;;;;;6100431;23;20446;-87
2021/09/02 07:16:02;;;;;;;12.67;7.73;;;20.40;99.90;;;;;;6105910;23;20467;-87
2021/09/02 07:18:32;;;;;;;12.33;7.87;;;20.80;99.90;;;;;;6103185;23;20468;-87
2021/09/02 07:20:59;;;;;;;15.03;8.27;;;21.50;99.90;;;;;;6104859;23;20496;-86
2021/09/02 07:23:28;;;;;;;15.83;8.90;;;21.90;99.90;;;;;;6118746;23;20421;-87
2021/09/02 07:25:56;;;;;;;14.30;8.47;;;22.00;99.90;;;;;;6103033;23;20482;-87
2021/09/02 07:28:24;;;;;;;12.27;8.07;;;22.50;99.90;;;;;;6121015;23;20417;-88
2021/09/02 07:30:52;;;;;;;9.53;7.07;;;23.30;99.90;;;;;;6103758;23;20478;-87
2021/09/02 07:33:20;;;;;;;13.03;8.00;;;23.90;98.50;;;;;;6102285;23;20450;-87
2021/09/02 07:35:47;;;;;;;12.97;8.50;;;24.60;97.40;;;;;;6112086;23;20418;-87
2021/09/02 07:38:14;;;;;;;11.70;8.37;;;25.40;95.50;;;;;;6108417;23;20442;-87
2021/09/02 07:40:42;;;;;;;12.80;8.13;;;26.10;93.70;;;;;;6106670;23;20497;-87
2021/09/02 07:43:09;;;;;;;9.43;7.17;;;26.40;92.60;;;;;;6106040;23;20398;-86
2021/09/02 07:45:36;;;;;;;11.10;8.13;;;26.70;92.40;;;;;;6104927;23;20737;-87
2021/09/02 07:48:04;;;;;;;12.97;8.50;;;26.50;91.50;;;;;;6107975;23;20434;-87
2021/09/02 07:50:33;;;;;;;12.70;8.07;;;26.10;91.80;;;;;;6104032;23;20470;-87
2021/09/02 07:53:00;;;;;;;15.60;8.60;;;26.50;91.80;;;;;;6103180;23;20422;-87
2021/09/02 07:55:27;;;;;;;17.73;9.50;;;26.40;91.40;;;;;;6104389;23;20416;-87
2021/09/02 07:57:54;;;;;;;16.67;9.13;;;26.20;91.80;;;;;;6108692;23;20811;-87
2021/09/02 08:00:21;;;;;;;15.07;7.90;;;26.30;91.60;;;;;;6108644;23;20418;-87
2021/09/02 08:02:49;;;;;;;14.20;7.90;;;26.20;91.70;;;;;;6105741;23;20413;-88
2021/09/02 08:05:16;;;;;;;11.87;7.60;;;26.20;91.90;;;;;;6102900;23;20507;-87
2021/09/02 08:07:47;;;;;;;17.13;8.73;;;26.50;91.40;;;;;;6103399;23;20452;-86
2021/09/02 08:10:14;;;;;;;16.77;7.47;;;26.90;91.00;;;;;;6101669;23;20371;-86
2021/09/02 08:12:41;;;;;;;15.83;9.30;;;27.20;90.20;;;;;;6102281;23;20485;-87
2021/09/02 08:15:09;;;;;;;16.27;9.30;;;26.50;91.00;;;;;;6102486;23;20446;-87
2021/09/02 08:17:36;;;;;;;21.30;10.43;;;26.20;91.60;;;;;;6101960;23;20439;-87
2021/09/02 08:20:05;;;;;;;20.43;10.40;;;25.70;92.30;;;;;;6103153;23;20493;-86
2021/09/02 08:22:32;;;;;;;14.73;9.10;;;25.10;93.20;;;;;;6102742;23;20472;-87
2021/09/02 08:25:01;;;;;;;15.03;10.50;;;24.40;94.20;;;;;;6105258;23;20411;-87
2021/09/02 08:27:28;;;;;;;15.60;11.73;;;23.90;95.90;;;;;;6101365;23;20488;-87
2021/09/02 08:29:55;;;;;;;16.83;9.63;;;23.60;96.50;;;;;;6105499;23;20414;-87
2021/09/02 08:32:22;;;;;;;20.50;9.83;;;23.00;97.80;;;;;;6122645;23;20438;-87
2021/09/02 08:34:50;;;;;;;16.17;10.57;;;22.90;99.40;;;;;;6122768;23;20461;-89
2021/09/02 08:37:17;;;;;;;18.10;10.80;;;22.90;98.70;;;;;;6122317;23;20438;-88
2021/09/02 08:39:44;;;;;;;18.20;10.70;;;22.80;99.20;;;;;;6106723;23;20410;-87
2021/09/02 08:42:15;;;;;;;22.97;10.40;;;22.60;99.10;;;;;;6103902;23;20413;-87
2021/09/02 08:44:43;;;;;;;17.70;11.30;;;22.60;99.90;;;;;;6101828;23;20393;-87
2021/09/02 08:47:11;;;;;;;16.10;11.10;;;22.40;99.90;;;;;;6100308;23;20502;-87
2021/09/02 08:49:39;;;;;;;24.10;12.77;;;22.30;99.90;;;;;;6101514;23;20489;-87
2021/09/02 08:52:07;;;;;;;19.40;11.70;;;22.30;99.90;;;;;;6103292;23;20421;-87
2021/09/02 08:54:35;;;;;;;29.33;14.17;;;22.10;99.90;;;;;;6103129;23;20524;-87
2021/09/02 08:57:02;;;;;;;20.93;12.60;;;22.30;99.90;;;;;;6106171;23;20440;-86
2021/09/02 08:59:31;;;;;;;18.90;12.40;;;22.50;99.90;;;;;;6104046;23;20901;-88
2021/09/02 09:01:58;;;;;;;22.13;11.57;;;23.10;99.90;;;;;;6104516;23;20469;-87
2021/09/02 09:04:35;;;;;;;23.10;11.40;;;23.30;99.40;;;;;;6103997;23;20414;-87
2021/09/02 09:07:02;;;;;;;21.77;12.30;;;23.50;98.40;;;;;;6103138;23;20441;-86
2021/09/02 09:09:29;;;;;;;19.93;12.43;;;23.30;98.30;;;;;;6103760;23;20406;-87
2021/09/02 09:12:00;;;;;;;23.23;14.57;;;23.10;98.80;;;;;;6117257;23;20445;-87
2021/09/02 09:14:28;;;;;;;20.37;12.80;;;22.50;99.20;;;;;;6105345;23;20443;-87
2021/09/02 09:16:59;;;;;;;23.73;13.43;;;22.00;99.90;;;;;;6108347;23;20433;-87
2021/09/02 09:19:41;;;;;;;22.20;11.50;;;22.10;99.90;;;;;;6105094;23;20497;-86
2021/09/02 09:22:10;;;;;;;20.67;12.40;;;22.70;99.90;;;;;;6104251;23;20890;-88
2021/09/02 09:24:43;;;;;;;18.47;11.90;;;24.10;98.10;;;;;;6105066;23;20449;-87
2021/09/02 09:27:11;;;;;;;22.50;14.27;;;25.70;94.20;;;;;;6105737;23;20498;-88
2021/09/02 09:29:38;;;;;;;16.03;12.17;;;26.70;90.00;;;;;;6107251;23;20425;-86
2021/09/02 09:32:15;;;;;;;19.00;12.33;;;26.30;89.50;;;;;;6105836;23;20420;-87
2021/09/02 09:34:52;;;;;;;16.63;11.80;;;25.60;90.50;;;;;;6102423;23;20437;-87
2021/09/02 09:37:21;;;;;;;21.90;12.87;;;24.80;90.70;;;;;;6104280;23;20425;-87
2021/09/02 09:39:49;;;;;;;15.70;11.40;;;24.20;91.90;;;;;;6111279;23;20415;-86
2021/09/02 09:42:18;;;;;;;15.67;12.43;;;24.00;93.40;;;;;;6102379;23;20403;-86
2021/09/02 09:44:46;;;;;;;15.90;10.83;;;24.20;93.20;;;;;;6104683;23;20958;-86
2021/09/02 09:47:17;;;;;;;15.13;9.90;;;24.10;92.80;;;;;;6115814;23;20437;-87
2021/09/02 09:49:47;;;;;;;14.93;9.97;;;23.60;92.90;;;;;;6114816;23;20399;-86
2021/09/02 09:52:21;;;;;;;12.30;9.83;;;23.50;93.20;;;;;;6119760;23;20418;-86
2021/09/02 09:54:48;;;;;;;15.90;10.10;;;23.50;93.70;;;;;;6121329;23;20444;-88
2021/09/02 09:57:16;;;;;;;16.03;8.93;;;23.90;93.50;;;;;;6121825;23;20414;-87
2021/09/02 09:59:44;;;;;;;13.00;10.20;;;24.40;92.60;;;;;;6119167;23;20399;-86
2021/09/02 10:02:12;;;;;;;13.20;9.90;;;24.50;92.20;;;;;;6115679;23;20493;-86
2021/09/02 10:04:43;;;;;;;13.93;9.57;;;24.30;92.80;;;;;;6108837;23;20412;-87
2021/09/02 10:07:13;;;;;;;18.40;10.33;;;23.80;92.90;;;;;;6102514;23;20442;-86
2021/09/02 10:09:40;;;;;;;16.00;9.93;;;23.40;93.70;;;;;;6106708;23;20466;-86
2021/09/02 10:12:08;;;;;;;34.60;22.50;;;23.00;94.70;;;;;;6116418;23;20446;-87
2021/09/02 10:14:36;;;;;;;15.43;10.80;;;22.70;95.70;;;;;;6111977;23;20770;-88
2021/09/02 10:17:04;;;;;;;16.30;9.87;;;22.60;96.30;;;;;;6110856;23;20438;-87
2021/09/02 10:19:34;;;;;;;12.50;8.37;;;22.40;96.40;;;;;;6107156;23;20490;-87
2021/09/02 10:22:04;;;;;;;17.40;10.40;;;22.50;96.70;;;;;;6106776;23;20925;-87
2021/09/02 10:24:35;;;;;;;14.70;10.00;;;22.50;95.50;;;;;;6105508;23;20434;-87
2021/09/02 10:27:40;;;;;;;21.17;9.70;;;22.60;95.20;;;;;;6106262;23;20438;-87
2021/09/02 10:30:23;;;;;;;16.17;9.23;;;23.00;96.10;;;;;;6121536;23;20414;-87
2021/09/02 10:32:50;;;;;;;14.83;9.07;;;23.30;94.70;;;;;;6106887;23;20406;-87
2021/09/02 10:35:35;;;;;;;14.43;9.10;;;23.60;94.60;;;;;;6104232;23;20442;-87
2021/09/02 10:38:04;;;;;;;16.10;8.70;;;23.80;94.30;;;;;;6107782;23;20491;-86
2021/09/02 10:40:51;;;;;;;14.57;10.20;;;24.10;93.40;;;;;;6109280;23;20462;-87
2021/09/02 10:43:49;;;;;;;15.17;10.33;;;24.30;93.60;;;;;;6102705;23;20501;-87
2021/09/02 10:46:35;;;;;;;13.93;9.80;;;24.30;93.90;;;;;;6101936;23;20478;-89
2021/09/02 10:49:16;;;;;;;17.37;10.30;;;24.00;94.00;;;;;;6105007;23;20477;-87
2021/09/02 10:51:46;;;;;;;13.93;10.33;;;23.90;94.00;;;;;;6110262;23;20397;-86
2021/09/02 10:54:19;;;;;;;20.23;10.37;;;24.00;94.70;;;;;;6107394;23;20434;-86
2021/09/02 10:56:55;;;;;;;18.83;10.90;;;23.70;93.80;;;;;;6118088;23;20461;-88
2021/09/02 10:59:43;;;;;;;14.00;9.57;;;23.50;94.80;;;;;;6121409;23;20442;-89
2021/09/02 11:02:11;;;;;;;14.53;9.23;;;23.40;95.30;;;;;;6122475;23;20513;-88
2021/09/02 11:04:39;;;;;;;15.60;9.23;;;23.20;94.60;;;;;;6122102;23;20394;-88
2021/09/02 11:07:08;;;;;;;14.30;8.27;;;23.30;95.50;;;;;;6123115;23;20518;-89
2021/09/02 11:09:37;;;;;;;12.90;9.40;;;23.60;94.10;;;;;;6123436;23;20382;-88
2021/09/02 11:12:08;;;;;;;18.20;9.77;;;23.60;93.80;;;;;;6122787;23;20496;-88
2021/09/02 11:14:40;;;;;;;13.73;9.50;;;23.50;94.10;;;;;;6123176;23;20422;-87
2021/09/02 11:17:10;;;;;;;14.97;9.30;;;23.30;94.40;;;;;;6123629;23;20419;-88
2021/09/02 11:19:39;;;;;;;17.83;10.70;;;23.40;94.80;;;;;;6121932;23;20425;-88
2021/09/02 11:22:08;;;;;;;13.60;10.00;;;23.20;94.60;;;;;;6122527;23;20406;-88
2021/09/02 11:24:45;;;;;;;18.00;9.23;;;23.10;95.00;;;;;;6121681;23;20433;-85
2021/09/02 11:27:15;;;;;;;13.30;10.23;;;23.10;95.70;;;;;;6110808;23;20414;-85
2021/09/02 11:29:43;;;;;;;16.07;10.57;;;23.20;95.10;;;;;;6104513;23;20390;-85
2021/09/02 11:32:12;;;;;;;15.83;9.37;;;23.20;94.80;;;;;;6103941;23;20738;-88
2021/09/02 11:34:40;;;;;;;12.57;8.67;;;23.20;95.30;;;;;;6102565;23;20469;-86
2021/09/02 11:37:07;;;;;;;13.93;9.40;;;23.20;95.60;;;;;;6102003;23;20514;-86
2021/09/02 11:39:36;;;;;;;14.07;8.93;;;23.20;95.70;;;;;;6104085;23;20904;-86
2021/09/02 11:42:08;;;;;;;15.27;9.73;;;23.20;95.40;;;;;;6115580;23;20402;-86
2021/09/02 11:44:41;;;;;;;15.83;9.67;;;23.20;95.10;;;;;;6120391;23;20399;-87
2021/09/02 11:47:15;;;;;;;18.27;10.53;;;23.20;95.10;;;;;;6104820;23;20616;-86
2021/09/02 11:49:42;;;;;;;13.83;10.67;;;23.20;96.10;;;;;;6106809;23;20437;-86
2021/09/02 11:52:10;;;;;;;15.17;9.47;;;23.20;94.40;;;;;;6106280;23;20418;-88
2021/09/02 11:54:37;;;;;;;18.47;11.07;;;23.20;95.40;;;;;;6105864;23;20446;-86
2021/09/02 11:57:06;;;;;;;17.53;9.53;;;23.30;95.30;;;;;;6107092;23;20418;-88
2021/09/02 11:59:33;;;;;;;14.33;9.70;;;23.40;94.80;;;;;;6106832;23;20473;-87
2021/09/02 12:02:01;;;;;;;15.73;10.23;;;23.40;94.80;;;;;;6105063;23;20422;-86
2021/09/02 12:04:30;;;;;;;14.80;8.97;;;23.30;94.70;;;;;;6102548;23;20546;-87
2021/09/02 12:06:59;;;;;;;16.73;10.03;;;23.30;94.70;;;;;;6104045;23;20533;-87
2021/09/02 12:09:31;;;;;;;14.47;9.77;;;23.00;94.80;;;;;;6103821;23;20411;-87
2021/09/02 12:11:59;;;;;;;11.63;8.33;;;23.10;95.30;;;;;;6109698;23;20394;-87
2021/09/02 12:14:30;;;;;;;14.00;10.20;;;23.00;95.00;;;;;;6115946;23;20452;-87
2021/09/02 12:17:02;;;;;;;17.30;9.70;;;22.90;95.50;;;;;;6102879;23;20437;-87
2021/09/02 12:19:30;;;;;;;19.50;8.90;;;22.80;95.20;;;;;;6104379;23;20433;-87
2021/09/02 12:22:12;;;;;;;13.13;8.93;;;23.10;95.50;;;;;;6105059;23;20406;-88
2021/09/02 12:24:39;;;;;;;11.30;9.33;;;23.50;95.20;;;;;;6103391;23;20797;-88
2021/09/02 12:27:07;;;;;;;10.93;9.23;;;23.80;94.40;;;;;;6101018;23;20438;-88
2021/09/02 12:29:47;;;;;;;12.87;8.23;;;23.90;94.20;;;;;;6104700;23;20414;-88
2021/09/02 12:32:17;;;;;;;12.83;9.90;;;23.80;93.50;;;;;;6110180;23;20418;-88
2021/09/02 12:34:44;;;;;;;13.10;9.23;;;23.60;94.00;;;;;;6104237;23;20434;-88
2021/09/02 12:37:13;;;;;;;18.10;9.70;;;23.40;93.60;;;;;;6108307;23;20462;-88
2021/09/02 12:39:49;;;;;;;14.93;9.67;;;23.20;93.80;;;;;;6111267;23;20418;-88
2021/09/02 12:42:22;;;;;;;13.80;9.50;;;23.60;94.30;;;;;;6109576;23;20414;-87
2021/09/02 12:45:05;;;;;;;18.40;12.03;;;24.10;94.20;;;;;;6110143;23;20548;-88